11MA weather

Bulljump Airport
Wareham, Massachusetts, United States

Public forecast

Using degrees Fahrenheit for public forecast. Weather courtesy of forecast.io.

METAR (pilot weather report)

Closest report is Plymouth Municipal Airport, 6.2 nm (11.6 km) NNE. Retrieved 2019/07/24 00:52 UTC (31 minutes ago):

KPYM 240052Z AUTO 15004KT 10SM CLR 17/15 A2993 RMK AO2 SLP133 T01720150

TAF (pilot weather forecast)

Forecast is more than 12 hours old.

Closest forecast is Cape Cod Coast Guard Air Station, 13.9 nm (25.7 km) SE. Retrieved 2019/07/23 00:27 UTC (1 day ago):

TAF KFMH 232325Z 2400/2424 35004KT P6SM SCT015 OVC050 FM240800 00000KT P6SM -SHRA OVC025 FM241100 04006KT P6SM VCSH OVC040 FM241400 03007KT P6SM BKN030 FM241900 05008KT P6SM BKN250